This is the latest recevied weather packets stored in our database for station/object K4BHH. If no packets are shown the sender has not sent any weather packets the latest 10 day(s).
| Time | Temp. | Humidity | Pressure | Rain* | Wind** | Luminosity | Snow |
|---|---|---|---|---|---|---|---|
| 1777754193 | 18.33° C | 38% | 1015.6 hPa | 0 mm | - | - | - |
| 1777749955 | 18.33° C | 37% | 1015.9 hPa | 0 mm | - | - | - |
| 1777748753 | 18.33° C | 37% | 1015.9 hPa | 0 mm | - | - | - |
| 1777747551 | 18.33° C | 39% | 1016.3 hPa | 0 mm | - | - | - |
| 1777746950 | 18.33° C | 37% | 1016.3 hPa | 0 mm | - | - | - |
| 1777746350 | 18.33° C | 36% | 1016.3 hPa | 0 mm | - | - | - |
| 1777745749 | 18.33° C | 39% | 1016.3 hPa | 0 mm | - | - | - |
| 1777741417 | 17.22° C | 39% | 1016.6 hPa | 0 mm | - | - | - |
| 1777737717 | 15.56° C | 47% | 1017.3 hPa | 0 mm | - | - | - |
| 1777735914 | 15° C | 46% | 1017.3 hPa | 0 mm | - | - | - |
| 1777732878 | 13.89° C | 53% | 1016.6 hPa | 0 mm | - | - | - |
| 1777728070 | 12.78° C | 62% | 1016.6 hPa | 0 mm | - | - | - |
| 1777725004 | 11.11° C | 68% | 1016.6 hPa | 0 mm | - | - | - |
| 1777714062 | 10.56° C | 61% | 1015.2 hPa | 0 mm | - | - | - |
| 1777712197 | 11.11° C | 59% | 1015.2 hPa | 0 mm | - | - | - |
| 1777707928 | 11.67° C | 56% | 1014.9 hPa | 0 mm | - | - | - |
| 1777707327 | 11.67° C | 56% | 1015.2 hPa | 0 mm | - | - | - |
| 1777706726 | 11.67° C | 56% | 1015.2 hPa | 0 mm | - | - | - |
| 1777703690 | 12.22° C | 54% | 1015.9 hPa | 0 mm | - | - | - |
| 1777701887 | 12.22° C | 53% | 1015.9 hPa | 0 mm | - | - | - |
| 1777700685 | 12.78° C | 51% | 1015.9 hPa | 0 mm | - | - | - |
| 1777699483 | 12.78° C | 50% | 1015.9 hPa | 0 mm | - | - | - |
| 1777698882 | 12.78° C | 50% | 1015.9 hPa | 0 mm | - | - | - |
| 1777698282 | 12.78° C | 49% | 1015.9 hPa | 0 mm | - | - | - |
| 1777694675 | 13.33° C | 47% | 1015.6 hPa | 0 mm | - | - | - |
* Rain latest hour (hover to see other rain measurements)
** Current wind speed in m/s (hover to see current wind gust speed)